sensor_id;sensor_type;location;lat;lon;timestamp;pressure;altitude;pressure_sealevel;temperature;humidity
75438;BME280;64015;49.392;15.582;2023-04-03T00:01:15;96187.69;;;1.87;75.85
75438;BME280;64015;49.392;15.582;2023-04-03T00:03:41;96192.34;;;1.85;76.31
75438;BME280;64015;49.392;15.582;2023-04-03T00:06:07;96199.31;;;1.78;76.86
75438;BME280;64015;49.392;15.582;2023-04-03T00:08:35;96194.91;;;1.78;76.18
75438;BME280;64015;49.392;15.582;2023-04-03T00:11:01;96193.91;;;1.86;75.35
75438;BME280;64015;49.392;15.582;2023-04-03T00:13:27;96196.72;;;1.84;76.24
75438;BME280;64015;49.392;15.582;2023-04-03T00:15:53;96194.94;;;1.85;75.95
75438;BME280;64015;49.392;15.582;2023-04-03T00:18:19;96190.72;;;1.91;76.22
75438;BME280;64015;49.392;15.582;2023-04-03T00:20:45;96186.13;;;1.79;76.39
75438;BME280;64015;49.392;15.582;2023-04-03T00:23:11;96182.50;;;1.87;75.92
75438;BME280;64015;49.392;15.582;2023-04-03T00:25:37;96195.69;;;1.85;75.59
75438;BME280;64015;49.392;15.582;2023-04-03T00:28:04;96185.09;;;1.87;75.90
75438;BME280;64015;49.392;15.582;2023-04-03T00:30:30;96182.50;;;1.80;75.57
75438;BME280;64015;49.392;15.582;2023-04-03T00:32:56;96186.13;;;1.79;75.83
75438;BME280;64015;49.392;15.582;2023-04-03T00:35:23;96184.53;;;1.72;75.39
75438;BME280;64015;49.392;15.582;2023-04-03T00:37:53;96195.53;;;1.74;75.85
75438;BME280;64015;49.392;15.582;2023-04-03T00:40:21;96186.94;;;1.73;75.72
75438;BME280;64015;49.392;15.582;2023-04-03T00:42:49;96187.72;;;1.74;76.10
75438;BME280;64015;49.392;15.582;2023-04-03T00:45:30;96186.94;;;1.67;75.98
75438;BME280;64015;49.392;15.582;2023-04-03T00:47:56;96186.53;;;1.70;76.47
75438;BME280;64015;49.392;15.582;2023-04-03T00:50:25;96191.34;;;1.66;76.63
75438;BME280;64015;49.392;15.582;2023-04-03T00:52:52;96194.72;;;1.60;76.29
75438;BME280;64015;49.392;15.582;2023-04-03T00:55:19;96191.53;;;1.52;77.12
75438;BME280;64015;49.392;15.582;2023-04-03T00:57:45;96194.91;;;1.59;76.77
75438;BME280;64015;49.392;15.582;2023-04-03T01:00:14;96199.75;;;1.55;76.12
75438;BME280;64015;49.392;15.582;2023-04-03T01:02:41;96190.72;;;1.58;76.30
75438;BME280;64015;49.392;15.582;2023-04-03T01:05:08;96202.16;;;1.57;76.41
75438;BME280;64015;49.392;15.582;2023-04-03T01:07:35;96189.72;;;1.59;76.20
75438;BME280;64015;49.392;15.582;2023-04-03T01:10:05;96192.53;;;1.50;76.15
75438;BME280;64015;49.392;15.582;2023-04-03T01:12:34;96191.34;;;1.46;77.10
75438;BME280;64015;49.392;15.582;2023-04-03T01:15:06;96188.13;;;1.58;76.45
75438;BME280;64015;49.392;15.582;2023-04-03T01:17:44;96191.13;;;1.55;75.97
75438;BME280;64015;49.392;15.582;2023-04-03T01:25:43;96190.13;;;1.36;76.86
75438;BME280;64015;49.392;15.582;2023-04-03T01:28:23;96192.94;;;1.47;76.68
75438;BME280;64015;49.392;15.582;2023-04-03T01:33:49;96189.31;;;1.35;76.43
75438;BME280;64015;49.392;15.582;2023-04-03T01:36:26;96200.31;;;1.37;75.84
75438;BME280;64015;49.392;15.582;2023-04-03T01:38:57;96197.94;;;1.36;76.61
75438;BME280;64015;49.392;15.582;2023-04-03T01:41:24;96196.31;;;1.35;77.06
75438;BME280;64015;49.392;15.582;2023-04-03T01:43:51;96187.34;;;1.37;75.67
75438;BME280;64015;49.392;15.582;2023-04-03T01:46:17;96188.91;;;1.32;75.75
75438;BME280;64015;49.392;15.582;2023-04-03T01:48:43;96197.69;;;1.24;76.69
75438;BME280;64015;49.392;15.582;2023-04-03T01:51:09;96197.69;;;1.24;75.60
75438;BME280;64015;49.392;15.582;2023-04-03T01:53:35;96205.53;;;1.37;76.09
75438;BME280;64015;49.392;15.582;2023-04-03T01:56:01;96205.72;;;1.29;74.60
75438;BME280;64015;49.392;15.582;2023-04-03T01:58:26;96210.91;;;1.29;75.21
75438;BME280;64015;49.392;15.582;2023-04-03T02:00:52;96202.09;;;1.30;74.61
75438;BME280;64015;49.392;15.582;2023-04-03T02:03:18;96204.50;;;1.19;75.02
75438;BME280;64015;49.392;15.582;2023-04-03T02:05:44;96202.72;;;1.19;75.69
75438;BME280;64015;49.392;15.582;2023-04-03T02:08:11;96214.50;;;1.35;74.17
75438;BME280;64015;49.392;15.582;2023-04-03T02:10:36;96209.28;;;1.22;74.22
75438;BME280;64015;49.392;15.582;2023-04-03T02:13:02;96206.50;;;1.17;74.25
75438;BME280;64015;49.392;15.582;2023-04-03T02:15:28;96208.09;;;1.18;74.64
75438;BME280;64015;49.392;15.582;2023-04-03T02:17:53;96213.28;;;1.24;74.09
75438;BME280;64015;49.392;15.582;2023-04-03T02:20:20;96206.50;;;1.23;73.26
75438;BME280;64015;49.392;15.582;2023-04-03T02:22:46;96214.50;;;1.35;74.35
75438;BME280;64015;49.392;15.582;2023-04-03T02:25:12;96210.88;;;1.23;73.75
75438;BME280;64015;49.392;15.582;2023-04-03T02:27:38;96215.31;;;1.29;74.26
75438;BME280;64015;49.392;15.582;2023-04-03T02:30:04;96204.28;;;1.13;73.73
75438;BME280;64015;49.392;15.582;2023-04-03T02:32:31;96206.09;;;1.20;73.69
75438;BME280;64015;49.392;15.582;2023-04-03T02:34:56;96218.06;;;1.14;74.71
75438;BME280;64015;49.392;15.582;2023-04-03T02:37:22;96216.50;;;1.20;74.33
75438;BME280;64015;49.392;15.582;2023-04-03T02:39:48;96214.84;;;1.12;74.86
75438;BME280;64015;49.392;15.582;2023-04-03T02:42:14;96220.25;;;1.04;75.65
75438;BME280;64015;49.392;15.582;2023-04-03T02:44:39;96220.84;;;1.12;75.36
75438;BME280;64015;49.392;15.582;2023-04-03T02:47:05;96218.06;;;1.21;75.26
75438;BME280;64015;49.392;15.582;2023-04-03T02:49:31;96222.84;;;1.04;75.05
75438;BME280;64015;49.392;15.582;2023-04-03T02:51:57;96224.25;;;1.13;75.84
75438;BME280;64015;49.392;15.582;2023-04-03T02:54:22;96222.41;;;0.94;76.05
75438;BME280;64015;49.392;15.582;2023-04-03T02:56:50;96225.78;;;0.88;76.05
75438;BME280;64015;49.392;15.582;2023-04-03T02:59:15;96228.81;;;0.91;76.42
75438;BME280;64015;49.392;15.582;2023-04-03T03:01:41;96231.78;;;0.82;76.45
75438;BME280;64015;49.392;15.582;2023-04-03T03:04:07;96225.53;;;0.76;76.44
75438;BME280;64015;49.392;15.582;2023-04-03T03:06:33;96227.78;;;0.86;75.94
75438;BME280;64015;49.392;15.582;2023-04-03T03:08:58;96234.56;;;0.87;76.18
75438;BME280;64015;49.392;15.582;2023-04-03T03:11:24;96232.34;;;0.84;76.70
75438;BME280;64015;49.392;15.582;2023-04-03T03:13:50;96229.19;;;0.82;76.82
75438;BME280;64015;49.392;15.582;2023-04-03T03:16:16;96234.75;;;0.72;77.09
75438;BME280;64015;49.392;15.582;2023-04-03T03:18:42;96229.13;;;0.68;77.29
75438;BME280;64015;49.392;15.582;2023-04-03T03:21:08;96237.00;;;0.47;76.72
75438;BME280;64015;49.392;15.582;2023-04-03T03:23:34;96241.00;;;0.43;76.85
75438;BME280;64015;49.392;15.582;2023-04-03T03:26:10;96233.38;;;0.42;77.00
75438;BME280;64015;49.392;15.582;2023-04-03T03:28:37;96237.34;;;0.37;77.61
75438;BME280;64015;49.392;15.582;2023-04-03T03:31:04;96240.91;;;0.30;77.61
75438;BME280;64015;49.392;15.582;2023-04-03T03:33:30;96232.28;;;0.23;77.88
75438;BME280;64015;49.392;15.582;2023-04-03T03:35:56;96230.31;;;0.25;78.02
75438;BME280;64015;49.392;15.582;2023-04-03T03:38:22;96238.94;;;0.32;78.71
75438;BME280;64015;49.392;15.582;2023-04-03T03:40:48;96230.78;;;0.35;78.38
75438;BME280;64015;49.392;15.582;2023-04-03T03:43:15;96233.53;;;0.27;77.84
75438;BME280;64015;49.392;15.582;2023-04-03T03:45:41;96238.25;;;0.17;78.36
75438;BME280;64015;49.392;15.582;2023-04-03T03:48:07;96232.41;;;0.08;78.43
75438;BME280;64015;49.392;15.582;2023-04-03T03:50:33;96243.78;;;0.07;79.07
75438;BME280;64015;49.392;15.582;2023-04-03T03:53:00;96241.91;;;0.01;78.10
75438;BME280;64015;49.392;15.582;2023-04-03T03:55:26;96233.59;;;-0.22;78.92
75438;BME280;64015;49.392;15.582;2023-04-03T03:57:52;96236.72;;;-0.27;79.68
75438;BME280;64015;49.392;15.582;2023-04-03T04:00:18;96237.84;;;-0.36;79.43
75438;BME280;64015;49.392;15.582;2023-04-03T04:02:43;96243.56;;;-0.47;79.86
75438;BME280;64015;49.392;15.582;2023-04-03T04:05:10;96242.56;;;-0.46;79.59
75438;BME280;64015;49.392;15.582;2023-04-03T04:07:35;96241.88;;;-0.55;80.05
75438;BME280;64015;49.392;15.582;2023-04-03T04:10:02;96247.75;;;-0.67;80.01
75438;BME280;64015;49.392;15.582;2023-04-03T04:12:27;96251.34;;;-0.68;80.65
75438;BME280;64015;49.392;15.582;2023-04-03T04:14:53;96248.94;;;-0.70;80.41
75438;BME280;64015;49.392;15.582;2023-04-03T04:17:18;96252.69;;;-0.94;81.10
75438;BME280;64015;49.392;15.582;2023-04-03T04:19:45;96257.75;;;-0.86;81.29
75438;BME280;64015;49.392;15.582;2023-04-03T04:22:10;96242.69;;;-0.97;81.25
75438;BME280;64015;49.392;15.582;2023-04-03T04:24:37;96248.84;;;-0.98;81.49
75438;BME280;64015;49.392;15.582;2023-04-03T04:27:02;96255.13;;;-1.07;80.68
75438;BME280;64015;49.392;15.582;2023-04-03T04:29:28;96257.81;;;-1.15;80.80
75438;BME280;64015;49.392;15.582;2023-04-03T04:31:53;96271.13;;;-1.18;81.21
75438;BME280;64015;49.392;15.582;2023-04-03T04:34:19;96262.56;;;-1.33;81.60
75438;BME280;64015;49.392;15.582;2023-04-03T04:36:45;96268.03;;;-1.43;82.32
75438;BME280;64015;49.392;15.582;2023-04-03T04:39:11;96275.16;;;-1.45;82.63
75438;BME280;64015;49.392;15.582;2023-04-03T04:41:36;96277.13;;;-1.47;81.39
75438;BME280;64015;49.392;15.582;2023-04-03T04:44:02;96281.94;;;-1.44;81.32
75438;BME280;64015;49.392;15.582;2023-04-03T04:46:28;96275.00;;;-1.43;81.19
75438;BME280;64015;49.392;15.582;2023-04-03T04:48:53;96282.50;;;-1.48;81.77
75438;BME280;64015;49.392;15.582;2023-04-03T04:51:19;96279.19;;;-1.42;81.77
75438;BME280;64015;49.392;15.582;2023-04-03T04:53:45;96284.88;;;-1.32;81.45
75438;BME280;64015;49.392;15.582;2023-04-03T04:56:11;96290.88;;;-1.32;81.41
75438;BME280;64015;49.392;15.582;2023-04-03T04:58:37;96280.25;;;-1.37;81.30
75438;BME280;64015;49.392;15.582;2023-04-03T05:01:05;96289.50;;;-1.28;80.54
75438;BME280;64015;49.392;15.582;2023-04-03T05:03:31;96284.97;;;-1.26;80.88
75438;BME280;64015;49.392;15.582;2023-04-03T05:05:57;96281.03;;;-1.22;79.92
75438;BME280;64015;49.392;15.582;2023-04-03T05:08:23;96288.59;;;-1.20;80.14
75438;BME280;64015;49.392;15.582;2023-04-03T05:10:48;96297.28;;;-1.28;80.31
75438;BME280;64015;49.392;15.582;2023-04-03T05:13:14;96289.16;;;-1.25;80.08
75438;BME280;64015;49.392;15.582;2023-04-03T05:15:40;96298.88;;;-1.12;79.02
75438;BME280;64015;49.392;15.582;2023-04-03T05:18:06;96306.19;;;-1.16;80.03
75438;BME280;64015;49.392;15.582;2023-04-03T05:20:33;96307.00;;;-1.15;79.03
75438;BME280;64015;49.392;15.582;2023-04-03T05:22:59;96312.59;;;-0.97;79.22
75438;BME280;64015;49.392;15.582;2023-04-03T05:25:25;96305.88;;;-0.91;78.67
75438;BME280;64015;49.392;15.582;2023-04-03T05:27:50;96316.91;;;-0.83;77.87
75438;BME280;64015;49.392;15.582;2023-04-03T05:30:17;96324.34;;;-0.80;77.35
75438;BME280;64015;49.392;15.582;2023-04-03T05:32:43;96320.72;;;-1.00;78.07
75438;BME280;64015;49.392;15.582;2023-04-03T05:35:09;96327.66;;;-0.86;77.43
75438;BME280;64015;49.392;15.582;2023-04-03T05:37:35;96324.16;;;-0.78;77.16
75438;BME280;64015;49.392;15.582;2023-04-03T05:40:03;96321.91;;;-0.66;76.63
75438;BME280;64015;49.392;15.582;2023-04-03T05:42:29;96334.06;;;-0.67;76.27
75438;BME280;64015;49.392;15.582;2023-04-03T05:44:55;96331.63;;;-0.68;75.74
75438;BME280;64015;49.392;15.582;2023-04-03T05:47:20;96332.69;;;-0.63;76.47
75438;BME280;64015;49.392;15.582;2023-04-03T05:49:47;96327.97;;;-0.38;75.22
75438;BME280;64015;49.392;15.582;2023-04-03T05:52:25;96333.75;;;-0.36;75.66
75438;BME280;64015;49.392;15.582;2023-04-03T05:54:52;96334.00;;;-0.52;75.24
75438;BME280;64015;49.392;15.582;2023-04-03T05:57:17;96339.00;;;-0.51;76.12
75438;BME280;64015;49.392;15.582;2023-04-03T05:59:44;96329.44;;;-0.50;75.71
75438;BME280;64015;49.392;15.582;2023-04-03T06:02:12;96338.06;;;-0.43;75.34
75438;BME280;64015;49.392;15.582;2023-04-03T06:04:38;96339.91;;;-0.37;74.84
75438;BME280;64015;49.392;15.582;2023-04-03T06:07:03;96339.75;;;-0.35;74.93
75438;BME280;64015;49.392;15.582;2023-04-03T06:09:30;96345.50;;;-0.19;73.32
75438;BME280;64015;49.392;15.582;2023-04-03T06:11:56;96343.28;;;-0.22;73.54
75438;BME280;64015;49.392;15.582;2023-04-03T06:14:25;96350.25;;;-0.22;73.03
75438;BME280;64015;49.392;15.582;2023-04-03T06:16:51;96346.63;;;-0.28;72.32
75438;BME280;64015;49.392;15.582;2023-04-03T06:19:18;96342.47;;;-0.22;73.48
75438;BME280;64015;49.392;15.582;2023-04-03T06:21:43;96346.97;;;-0.31;73.25
75438;BME280;64015;49.392;15.582;2023-04-03T06:24:14;96350.19;;;-0.29;73.37
75438;BME280;64015;49.392;15.582;2023-04-03T06:26:40;96360.03;;;-0.18;73.05
75438;BME280;64015;49.392;15.582;2023-04-03T06:29:06;96365.44;;;-0.19;72.08
75438;BME280;64015;49.392;15.582;2023-04-03T06:31:32;96357.84;;;-0.21;71.82
75438;BME280;64015;49.392;15.582;2023-04-03T06:33:58;96365.00;;;-0.23;72.04
75438;BME280;64015;49.392;15.582;2023-04-03T06:36:24;96369.31;;;-0.30;72.21
75438;BME280;64015;49.392;15.582;2023-04-03T06:38:50;96362.53;;;-0.10;72.50
75438;BME280;64015;49.392;15.582;2023-04-03T06:41:15;96359.44;;;-0.20;72.24
75438;BME280;64015;49.392;15.582;2023-04-03T06:43:43;96365.91;;;-0.09;72.53
75438;BME280;64015;49.392;15.582;2023-04-03T06:46:20;96370.78;;;0.00;71.97
75438;BME280;64015;49.392;15.582;2023-04-03T06:48:47;96377.25;;;0.11;72.05
75438;BME280;64015;49.392;15.582;2023-04-03T06:51:19;96370.56;;;-0.05;71.04
75438;BME280;64015;49.392;15.582;2023-04-03T06:53:46;96379.88;;;-0.10;70.96
75438;BME280;64015;49.392;15.582;2023-04-03T06:56:12;96381.41;;;0.06;71.02
75438;BME280;64015;49.392;15.582;2023-04-03T06:58:39;96386.91;;;0.17;69.90
75438;BME280;64015;49.392;15.582;2023-04-03T07:01:04;96386.91;;;0.17;68.78
75438;BME280;64015;49.392;15.582;2023-04-03T07:03:30;96385.31;;;0.16;69.17
75438;BME280;64015;49.392;15.582;2023-04-03T07:05:56;96380.38;;;0.00;69.69
75438;BME280;64015;49.392;15.582;2023-04-03T07:08:22;96389.06;;;0.14;69.50
75438;BME280;64015;49.392;15.582;2023-04-03T07:10:49;96394.44;;;0.12;69.52
75438;BME280;64015;49.392;15.582;2023-04-03T07:13:15;96386.16;;;0.23;70.31
75438;BME280;64015;49.392;15.582;2023-04-03T07:15:41;96395.31;;;0.47;68.71
75438;BME280;64015;49.392;15.582;2023-04-03T07:18:07;96384.47;;;0.37;68.99
75438;BME280;64015;49.392;15.582;2023-04-03T07:20:34;96378.75;;;0.20;68.06
75438;BME280;64015;49.392;15.582;2023-04-03T07:23:00;96395.94;;;0.49;69.28
75438;BME280;64015;49.392;15.582;2023-04-03T07:25:28;96395.19;;;0.55;68.31
75438;BME280;64015;49.392;15.582;2023-04-03T07:27:54;96399.66;;;0.68;68.26
75438;BME280;64015;49.392;15.582;2023-04-03T07:30:20;96399.63;;;0.96;67.96
75438;BME280;64015;49.392;15.582;2023-04-03T07:32:46;96404.50;;;0.71;67.21
75438;BME280;64015;49.392;15.582;2023-04-03T07:35:12;96403.41;;;0.93;67.86
75438;BME280;64015;49.392;15.582;2023-04-03T07:37:37;96413.31;;;0.77;67.30
75438;BME280;64015;49.392;15.582;2023-04-03T07:40:03;96408.53;;;0.80;67.13
75438;BME280;64015;49.392;15.582;2023-04-03T07:42:30;96411.88;;;1.02;66.10
75438;BME280;64015;49.392;15.582;2023-04-03T07:44:55;96403.16;;;1.16;68.13
75438;BME280;64015;49.392;15.582;2023-04-03T07:47:22;96408.41;;;1.29;67.28
75438;BME280;64015;49.392;15.582;2023-04-03T07:49:48;96397.19;;;1.22;64.36
75438;BME280;64015;49.392;15.582;2023-04-03T07:52:14;96403.34;;;1.21;65.34
75438;BME280;64015;49.392;15.582;2023-04-03T07:54:41;96411.59;;;1.25;64.48
75438;BME280;64015;49.392;15.582;2023-04-03T07:57:07;96400.28;;;1.04;64.92
75438;BME280;64015;49.392;15.582;2023-04-03T07:59:33;96407.22;;;0.63;64.47
75438;BME280;64015;49.392;15.582;2023-04-03T08:01:59;96407.34;;;0.27;65.63
75438;BME280;64015;49.392;15.582;2023-04-03T08:04:25;96407.72;;;0.24;66.44
75438;BME280;64015;49.392;15.582;2023-04-03T08:06:52;96402.53;;;0.24;67.81
75438;BME280;64015;49.392;15.582;2023-04-03T08:09:18;96400.56;;;0.26;67.55
75438;BME280;64015;49.392;15.582;2023-04-03T08:11:45;96411.50;;;0.49;68.13
75438;BME280;64015;49.392;15.582;2023-04-03T08:14:11;96407.38;;;0.83;66.57
75438;BME280;64015;49.392;15.582;2023-04-03T08:16:43;96411.41;;;0.92;66.22
75438;BME280;64015;49.392;15.582;2023-04-03T08:19:09;96416.50;;;1.06;65.59
75438;BME280;64015;49.392;15.582;2023-04-03T08:21:36;96421.13;;;1.11;64.99
75438;BME280;64015;49.392;15.582;2023-04-03T08:24:02;96413.00;;;0.93;66.15
75438;BME280;64015;49.392;15.582;2023-04-03T08:26:29;96424.94;;;0.81;65.45
75438;BME280;64015;49.392;15.582;2023-04-03T08:28:55;96422.66;;;0.99;63.66
75438;BME280;64015;49.392;15.582;2023-04-03T08:31:21;96433.75;;;1.62;64.36
75438;BME280;64015;49.392;15.582;2023-04-03T08:33:47;96431.25;;;1.95;62.12
75438;BME280;64015;49.392;15.582;2023-04-03T08:36:22;96424.63;;;1.92;60.42
75438;BME280;64015;49.392;15.582;2023-04-03T08:38:48;96436.47;;;2.08;61.32
75438;BME280;64015;49.392;15.582;2023-04-03T08:52:11;96435.63;;;1.40;61.66
75438;BME280;64015;49.392;15.582;2023-04-03T08:54:53;96432.91;;;1.48;60.69
75438;BME280;64015;49.392;15.582;2023-04-03T08:57:30;96423.97;;;1.77;59.91
75438;BME280;64015;49.392;15.582;2023-04-03T08:59:59;96413.00;;;1.75;60.16
75438;BME280;64015;49.392;15.582;2023-04-03T09:02:32;96418.19;;;1.75;57.45
75438;BME280;64015;49.392;15.582;2023-04-03T09:05:01;96426.09;;;1.54;57.09
75438;BME280;64015;49.392;15.582;2023-04-03T09:07:43;96434.53;;;1.62;58.19
75438;BME280;64015;49.392;15.582;2023-04-03T09:10:12;96424.59;;;1.85;57.43
75438;BME280;64015;49.392;15.582;2023-04-03T09:12:51;96427.84;;;1.94;56.44
75438;BME280;64015;49.392;15.582;2023-04-03T09:15:21;96426.63;;;1.83;56.18
75438;BME280;64015;49.392;15.582;2023-04-03T09:20:49;96434.47;;;2.10;55.51
75438;BME280;64015;49.392;15.582;2023-04-03T09:23:24;96433.13;;;2.40;54.10
75438;BME280;64015;49.392;15.582;2023-04-03T09:25:58;96425.09;;;2.42;53.97
75438;BME280;64015;49.392;15.582;2023-04-03T09:28:26;96442.53;;;2.21;53.29
75438;BME280;64015;49.392;15.582;2023-04-03T09:30:53;96441.63;;;1.88;51.96
75438;BME280;64015;49.392;15.582;2023-04-03T09:33:20;96440.03;;;1.87;52.81
75438;BME280;64015;49.392;15.582;2023-04-03T09:35:47;96437.41;;;1.74;51.57
75438;BME280;64015;49.392;15.582;2023-04-03T09:40:44;96443.41;;;1.81;52.75
75438;BME280;64015;49.392;15.582;2023-04-03T09:45:43;96436.53;;;2.60;51.06
75438;BME280;64015;49.392;15.582;2023-04-03T09:53:29;96431.81;;;3.86;46.66
75438;BME280;64015;49.392;15.582;2023-04-03T09:55:55;96437.91;;;4.11;46.45
75438;BME280;64015;49.392;15.582;2023-04-03T09:58:33;96439.19;;;3.51;45.97
75438;BME280;64015;49.392;15.582;2023-04-03T10:01:03;96453.16;;;2.92;50.18
75438;BME280;64015;49.392;15.582;2023-04-03T10:03:34;96455.53;;;2.35;48.30
75438;BME280;64015;49.392;15.582;2023-04-03T10:06:02;96451.31;;;2.20;46.45
75438;BME280;64015;49.392;15.582;2023-04-03T10:08:31;96453.50;;;2.10;47.27
75438;BME280;64015;49.392;15.582;2023-04-03T10:11:17;96441.94;;;2.72;49.08
75438;BME280;64015;49.392;15.582;2023-04-03T10:13:54;96443.97;;;3.54;47.21
75438;BME280;64015;49.392;15.582;2023-04-03T10:16:25;96440.91;;;4.15;45.05
75438;BME280;64015;49.392;15.582;2023-04-03T10:30:27;96459.53;;;3.23;48.94
75438;BME280;64015;49.392;15.582;2023-04-03T10:33:17;96434.28;;;3.04;46.66
75438;BME280;64015;49.392;15.582;2023-04-03T10:35:53;96446.81;;;4.35;46.16
75438;BME280;64015;49.392;15.582;2023-04-03T10:38:37;96437.94;;;5.11;43.55
75438;BME280;64015;49.392;15.582;2023-04-03T10:41:52;96420.72;;;5.21;44.11
75438;BME280;64015;49.392;15.582;2023-04-03T10:47:17;96445.06;;;4.54;44.54
75438;BME280;64015;49.392;15.582;2023-04-03T10:50:06;96434.69;;;5.52;42.12
75438;BME280;64015;49.392;15.582;2023-04-03T10:57:56;96437.69;;;5.37;42.41
75438;BME280;64015;49.392;15.582;2023-04-03T11:00:37;96420.50;;;6.91;39.23
75438;BME280;64015;49.392;15.582;2023-04-03T11:03:16;96411.81;;;7.25;36.21
75438;BME280;64015;49.392;15.582;2023-04-03T11:05:50;96388.53;;;6.06;39.05
75438;BME280;64015;49.392;15.582;2023-04-03T11:08:39;96424.91;;;4.86;41.75
75438;BME280;64015;49.392;15.582;2023-04-03T11:11:29;96400.41;;;6.61;40.86
75438;BME280;64015;49.392;15.582;2023-04-03T11:14:14;96415.28;;;7.66;35.97
75438;BME280;64015;49.392;15.582;2023-04-03T11:22:41;96424.13;;;6.25;39.49
75438;BME280;64015;49.392;15.582;2023-04-03T11:30:20;96425.72;;;5.96;40.62
75438;BME280;64015;49.392;15.582;2023-04-03T11:35:23;96388.75;;;11.02;32.62
75438;BME280;64015;49.392;15.582;2023-04-03T11:37:53;96406.59;;;10.53;31.44
75438;BME280;64015;49.392;15.582;2023-04-03T11:40:24;96411.28;;;8.03;35.43
75438;BME280;64015;49.392;15.582;2023-04-03T11:43:04;96410.00;;;6.26;38.10
75438;BME280;64015;49.392;15.582;2023-04-03T11:45:50;96414.41;;;5.66;39.26
75438;BME280;64015;49.392;15.582;2023-04-03T11:50:47;96395.31;;;7.65;36.27
75438;BME280;64015;49.392;15.582;2023-04-03T11:55:45;96418.25;;;5.81;39.45
75438;BME280;64015;49.392;15.582;2023-04-03T11:58:11;96410.84;;;5.60;41.16
75438;BME280;64015;49.392;15.582;2023-04-03T12:13:38;96418.91;;;4.29;44.56
75438;BME280;64015;49.392;15.582;2023-04-03T12:29:33;96420.06;;;3.70;48.06
75438;BME280;64015;49.392;15.582;2023-04-03T12:46:02;96415.84;;;3.05;50.32
75438;BME280;64015;49.392;15.582;2023-04-03T12:48:32;96392.19;;;3.00;48.45
75438;BME280;64015;49.392;15.582;2023-04-03T12:51:00;96407.84;;;3.00;49.01
75438;BME280;64015;49.392;15.582;2023-04-03T12:53:28;96394.16;;;3.24;48.42
75438;BME280;64015;49.392;15.582;2023-04-03T12:56:22;96396.63;;;3.57;48.27
75438;BME280;64015;49.392;15.582;2023-04-03T12:58:50;96392.56;;;4.06;44.86
75438;BME280;64015;49.392;15.582;2023-04-03T13:01:17;96379.75;;;7.75;36.39
75438;BME280;64015;49.392;15.582;2023-04-03T13:03:48;96384.59;;;8.90;35.02
75438;BME280;64015;49.392;15.582;2023-04-03T13:06:21;96384.06;;;6.36;37.23
75438;BME280;64015;49.392;15.582;2023-04-03T13:08:52;96385.81;;;5.34;40.50
75438;BME280;64015;49.392;15.582;2023-04-03T13:11:20;96388.34;;;5.22;40.69
75438;BME280;64015;49.392;15.582;2023-04-03T13:14:01;96384.22;;;4.47;42.33
75438;BME280;64015;49.392;15.582;2023-04-03T13:16:28;96392.72;;;3.73;44.35
75438;BME280;64015;49.392;15.582;2023-04-03T13:18:55;96387.91;;;3.77;44.90
75438;BME280;64015;49.392;15.582;2023-04-03T13:21:33;96380.78;;;3.59;45.77
75438;BME280;64015;49.392;15.582;2023-04-03T13:24:01;96386.19;;;3.57;45.81
75438;BME280;64015;49.392;15.582;2023-04-03T13:26:30;96386.19;;;3.57;43.42
75438;BME280;64015;49.392;15.582;2023-04-03T13:29:20;96385.78;;;3.60;42.19
75438;BME280;64015;49.392;15.582;2023-04-03T13:31:46;96394.28;;;4.19;43.23
75438;BME280;64015;49.392;15.582;2023-04-03T13:34:16;96388.88;;;6.39;39.66
75438;BME280;64015;49.392;15.582;2023-04-03T13:36:53;96388.50;;;5.28;39.67
75438;BME280;64015;49.392;15.582;2023-04-03T13:39:26;96388.59;;;4.78;42.13
75438;BME280;64015;49.392;15.582;2023-04-03T13:42:43;96385.28;;;4.15;43.83
75438;BME280;64015;49.392;15.582;2023-04-03T13:44:44;96386.78;;;3.59;43.84
75438;BME280;64015;49.392;15.582;2023-04-03T13:50:01;96375.50;;;3.65;45.46
75438;BME280;64015;49.392;15.582;2023-04-03T13:52:33;96383.19;;;3.98;45.43
75438;BME280;64015;49.392;15.582;2023-04-03T13:55:20;96367.44;;;3.73;43.95
75438;BME280;64015;49.392;15.582;2023-04-03T13:57:59;96381.28;;;3.29;45.33
75438;BME280;64015;49.392;15.582;2023-04-03T14:02:59;96390.22;;;2.82;47.30
75438;BME280;64015;49.392;15.582;2023-04-03T14:05:26;96386.63;;;2.77;48.22
75438;BME280;64015;49.392;15.582;2023-04-03T14:07:55;96382.78;;;2.99;46.48
75438;BME280;64015;49.392;15.582;2023-04-03T14:10:21;96375.16;;;2.97;46.80
75438;BME280;64015;49.392;15.582;2023-04-03T14:12:47;96388.16;;;3.11;47.51
75438;BME280;64015;49.392;15.582;2023-04-03T14:15:23;96383.06;;;3.35;47.86
75438;BME280;64015;49.392;15.582;2023-04-03T14:17:51;96383.75;;;3.62;46.83
75438;BME280;64015;49.392;15.582;2023-04-03T14:20:20;96383.25;;;3.34;47.28
75438;BME280;64015;49.392;15.582;2023-04-03T14:22:47;96386.03;;;3.46;45.92
75438;BME280;64015;49.392;15.582;2023-04-03T14:25:21;96371.31;;;3.07;45.83
75438;BME280;64015;49.392;15.582;2023-04-03T14:27:52;96387.19;;;3.05;46.96
75438;BME280;64015;49.392;15.582;2023-04-03T14:30:26;96384.69;;;3.30;47.65
75438;BME280;64015;49.392;15.582;2023-04-03T14:32:53;96385.16;;;3.07;45.62
75438;BME280;64015;49.392;15.582;2023-04-03T14:35:19;96383.19;;;2.89;46.09
75438;BME280;64015;49.392;15.582;2023-04-03T14:37:46;96383.44;;;2.55;46.77
75438;BME280;64015;49.392;15.582;2023-04-03T14:40:16;96388.81;;;2.80;48.42
75438;BME280;64015;49.392;15.582;2023-04-03T14:42:42;96369.59;;;2.74;47.24
75438;BME280;64015;49.392;15.582;2023-04-03T14:45:10;96382.41;;;2.82;48.22
75438;BME280;64015;49.392;15.582;2023-04-03T14:47:46;96385.81;;;2.89;47.38
75438;BME280;64015;49.392;15.582;2023-04-03T14:50:17;96389.25;;;2.44;48.69
75438;BME280;64015;49.392;15.582;2023-04-03T14:52:44;96386.66;;;2.17;46.91
75438;BME280;64015;49.392;15.582;2023-04-03T14:55:12;96376.66;;;2.21;46.74
75438;BME280;64015;49.392;15.582;2023-04-03T14:57:40;96378.25;;;2.22;46.78
75438;BME280;64015;49.392;15.582;2023-04-03T15:00:11;96391.66;;;2.25;46.92
75438;BME280;64015;49.392;15.582;2023-04-03T15:02:38;96396.66;;;2.73;45.62